Durham — WDF3868 — position and weather

sailwx.info

Track history (hours):
 
Tides and Currents Weather Stations Pressure Air Temp Water Temp Dewpoint Dewpoint Depression Visibility Wind Speed Wind Dir Waves Ship Positions

Durham

Owner: KEN'S BOOMING & BOAT SERVICE, INC., BAYONNE, NJ. More information available from US FCC via Universal Licensing System and Coast Guard Vessel Documentation Center.

Last reported at 2016-Dec-04 21:28 UTC. Time now 2016-Dec-04 22:30 UTC.
Position N 40°46' W 073°60'.

Length 18 m.

MMSI: 367444950.

Date/timePositionNaut miles runAvg speedWind from/ knotsBaromVisibWave heightAir tempDewpointWater temp
2016-Dec-04 21:28N 40°46' W 073°60'0 0.0
2016-Dec-04 20:33N 40°46' W 073°60'0 0.0
2016-Dec-04 19:33N 40°46' W 073°60'0 0.0
2016-Dec-04 18:33N 40°46' W 073°60'0 0.0
2016-Dec-04 17:33N 40°46' W 073°60'0 0.0
2016-Dec-04 16:33N 40°46' W 073°60'0 0.0
2016-Dec-03 00:30N 40°46' W 073°60'0 0.0
2016-Dec-02 20:28N 40°46' W 073°60'0 0.0
2016-Dec-02 19:33N 40°46' W 073°60'0 0.0
2016-Dec-02 18:33N 40°46' W 073°60'0 0.0
2016-Dec-02 17:27N 40°46' W 073°60'0 0.0
2016-Dec-02 16:31N 40°46' W 073°60'0 0.0
2016-Dec-02 15:33N 40°46' W 073°60'0 0.0
2016-Dec-02 14:33N 40°46' W 073°60'0 0.0
2016-Dec-02 13:18N 40°46' W 073°60'0 0.0
2016-Dec-02 10:33N 40°46' W 073°60'0 0.0
2016-Dec-02 09:31N 40°46' W 073°60'0 0.0
2016-Dec-02 08:31N 40°46' W 073°60'0 0.0
2016-Dec-02 07:29N 40°46' W 073°60'0 0.0
2016-Dec-02 06:08N 40°46' W 073°60'0 0.0
2016-Dec-02 05:33N 40°46' W 073°60'0 0.0
2016-Dec-02 04:33N 40°46' W 073°60'0 0.0
2016-Dec-02 03:33N 40°46' W 073°60'0 0.0
2016-Dec-02 02:33N 40°46' W 073°60'0 0.0
2016-Dec-02 01:33N 40°46' W 073°60'0 0.0
2016-Dec-02 00:33N 40°46' W 073°60'0 0.0
2016-Dec-01 23:33N 40°46' W 073°60'0 0.0
2016-Dec-01 21:16N 40°46' W 073°60'0 0.0
2016-Dec-01 20:33N 40°46' W 073°60'0 0.0
2016-Dec-01 19:33N 40°46' W 073°60'0 0.0
2016-Dec-01 18:33N 40°46' W 073°60'0 0.0
2016-Dec-01 17:33N 40°46' W 073°60'0 0.0
2016-Dec-01 16:33N 40°46' W 073°60'0 0.0
2016-Dec-01 15:33N 40°46' W 073°60'0 0.0
2016-Dec-01 14:33N 40°46' W 073°60'0 0.0
2016-Dec-01 13:33N 40°46' W 073°60'0 0.0
2016-Dec-01 12:33N 40°46' W 073°60'0 0.0
2016-Nov-30 21:25N 40°46' W 073°60'0 0.0
2016-Nov-30 20:33N 40°46' W 073°60'2 1.9
2016-Nov-30 19:33N 40°45' W 074°01'2 2.4
2016-Nov-30 18:33N 40°43' W 074°03'0 0.0
2016-Nov-30 17:33N 40°43' W 074°03'0 0.1
2016-Nov-30 16:33N 40°43' W 074°03'1 0.7
2016-Nov-30 15:33N 40°42' W 074°02'1 1.4
2016-Nov-30 14:34N 40°43' W 074°02'  
2016-Nov-26 22:14N 40°46' W 073°60'1 1.3
2016-Nov-26 21:33N 40°47' W 073°59'1 0.7
2016-Nov-26 20:33N 40°46' W 073°60'0 0.2
2016-Nov-26 19:33N 40°46' W 073°60'0 0.0
2016-Nov-26 18:33N 40°46' W 073°60'0 0.0
2016-Nov-26 17:33N 40°46' W 073°60'0 0.0
2016-Nov-26 16:33N 40°46' W 073°60'0 0.0
2016-Nov-26 15:33N 40°46' W 073°60'0 0.0
2016-Nov-26 14:33N 40°46' W 073°60'0 0.0
2016-Nov-26 13:33N 40°46' W 073°60'0 0.0
2016-Nov-26 12:33N 40°46' W 073°60'0 0.0
2016-Nov-26 11:33N 40°46' W 073°60'0 0.0
2016-Nov-26 10:33N 40°46' W 073°60'0 0.0
2016-Nov-26 09:33N 40°46' W 073°60'0 0.0
2016-Nov-26 08:33N 40°46' W 073°60'0 0.0
2016-Nov-26 07:33N 40°46' W 073°60'0 0.0
2016-Nov-26 06:33N 40°46' W 073°60'0 0.0
2016-Nov-26 05:33N 40°46' W 073°60'0 0.0
2016-Nov-26 04:33N 40°46' W 073°60'0 0.0
2016-Nov-26 03:33N 40°46' W 073°60'0 0.0
2016-Nov-26 02:33N 40°46' W 073°60'0 0.0
2016-Nov-26 01:33N 40°46' W 073°60'0 0.0
2016-Nov-26 00:33N 40°46' W 073°60'0 0.0
2016-Nov-25 23:33N 40°46' W 073°60'0 0.0
2016-Nov-25 22:33N 40°46' W 073°60'0 0.0
2016-Nov-25 21:33N 40°46' W 073°60'0 0.0
2016-Nov-25 20:33N 40°46' W 073°60'0 0.0
2016-Nov-25 19:33N 40°46' W 073°60'0 0.0
2016-Nov-25 18:33N 40°46' W 073°60'0 0.0
2016-Nov-25 17:33N 40°46' W 073°60'0 0.0
2016-Nov-25 16:33N 40°46' W 073°60'0 0.0
2016-Nov-25 15:33N 40°46' W 073°60'0 0.0
2016-Nov-25 14:33N 40°46' W 073°60'5 5.2
2016-Nov-25 13:33N 40°41' W 074°02'4 4.5
2016-Nov-25 12:33N 40°39' W 074°07'0 0.0
2016-Nov-25 11:32N 40°39' W 074°07'  
Track history (hours):
 
Tides and Currents Weather Stations Pressure Air Temp Water Temp Dewpoint Dewpoint Depression Visibility Wind Speed Wind Dir Waves Ship Positions

Durham

Owner: KEN'S BOOMING & BOAT SERVICE, INC., BAYONNE, NJ. More information available from US FCC via Universal Licensing System and Coast Guard Vessel Documentation Center.

Last reported at 2016-Dec-04 21:28 UTC. Time now 2016-Dec-04 22:30 UTC.
Position N 40°46' W 073°60'.

Length 18 m.

MMSI: 367444950.

Date/timePositionNaut miles runAvg speedWind from/ knotsBaromVisibWave heightAir tempDewpointWater temp
2016-Dec-04 21:28N 40°46' W 073°60'0 0.0
2016-Dec-04 20:33N 40°46' W 073°60'0 0.0
2016-Dec-04 19:33N 40°46' W 073°60'0 0.0
2016-Dec-04 18:33N 40°46' W 073°60'0 0.0
2016-Dec-04 17:33N 40°46' W 073°60'0 0.0
2016-Dec-04 16:33N 40°46' W 073°60'0 0.0
2016-Dec-03 00:30N 40°46' W 073°60'0 0.0
2016-Dec-02 20:28N 40°46' W 073°60'0 0.0
2016-Dec-02 19:33N 40°46' W 073°60'0 0.0
2016-Dec-02 18:33N 40°46' W 073°60'0 0.0
2016-Dec-02 17:27N 40°46' W 073°60'0 0.0
2016-Dec-02 16:31N 40°46' W 073°60'0 0.0
2016-Dec-02 15:33N 40°46' W 073°60'0 0.0
2016-Dec-02 14:33N 40°46' W 073°60'0 0.0
2016-Dec-02 13:18N 40°46' W 073°60'0 0.0
2016-Dec-02 10:33N 40°46' W 073°60'0 0.0
2016-Dec-02 09:31N 40°46' W 073°60'0 0.0
2016-Dec-02 08:31N 40°46' W 073°60'0 0.0
2016-Dec-02 07:29N 40°46' W 073°60'0 0.0
2016-Dec-02 06:08N 40°46' W 073°60'0 0.0
2016-Dec-02 05:33N 40°46' W 073°60'0 0.0
2016-Dec-02 04:33N 40°46' W 073°60'0 0.0
2016-Dec-02 03:33N 40°46' W 073°60'0 0.0
2016-Dec-02 02:33N 40°46' W 073°60'0 0.0
2016-Dec-02 01:33N 40°46' W 073°60'0 0.0
2016-Dec-02 00:33N 40°46' W 073°60'0 0.0
2016-Dec-01 23:33N 40°46' W 073°60'0 0.0
2016-Dec-01 21:16N 40°46' W 073°60'0 0.0
2016-Dec-01 20:33N 40°46' W 073°60'0 0.0
2016-Dec-01 19:33N 40°46' W 073°60'0 0.0
2016-Dec-01 18:33N 40°46' W 073°60'0 0.0
2016-Dec-01 17:33N 40°46' W 073°60'0 0.0
2016-Dec-01 16:33N 40°46' W 073°60'0 0.0
2016-Dec-01 15:33N 40°46' W 073°60'0 0.0
2016-Dec-01 14:33N 40°46' W 073°60'0 0.0
2016-Dec-01 13:33N 40°46' W 073°60'0 0.0
2016-Dec-01 12:33N 40°46' W 073°60'0 0.0
2016-Nov-30 21:25N 40°46' W 073°60'0 0.0
2016-Nov-30 20:33N 40°46' W 073°60'2 1.9
2016-Nov-30 19:33N 40°45' W 074°01'2 2.4
2016-Nov-30 18:33N 40°43' W 074°03'0 0.0
2016-Nov-30 17:33N 40°43' W 074°03'0 0.1
2016-Nov-30 16:33N 40°43' W 074°03'1 0.7
2016-Nov-30 15:33N 40°42' W 074°02'1 1.4
2016-Nov-30 14:34N 40°43' W 074°02'  
2016-Nov-26 22:14N 40°46' W 073°60'1 1.3
2016-Nov-26 21:33N 40°47' W 073°59'1 0.7
2016-Nov-26 20:33N 40°46' W 073°60'0 0.2
2016-Nov-26 19:33N 40°46' W 073°60'0 0.0
2016-Nov-26 18:33N 40°46' W 073°60'0 0.0
2016-Nov-26 17:33N 40°46' W 073°60'0 0.0
2016-Nov-26 16:33N 40°46' W 073°60'0 0.0
2016-Nov-26 15:33N 40°46' W 073°60'0 0.0
2016-Nov-26 14:33N 40°46' W 073°60'0 0.0
2016-Nov-26 13:33N 40°46' W 073°60'0 0.0
2016-Nov-26 12:33N 40°46' W 073°60'0 0.0
2016-Nov-26 11:33N 40°46' W 073°60'0 0.0
2016-Nov-26 10:33N 40°46' W 073°60'0 0.0
2016-Nov-26 09:33N 40°46' W 073°60'0 0.0
2016-Nov-26 08:33N 40°46' W 073°60'0 0.0
2016-Nov-26 07:33N 40°46' W 073°60'0 0.0
2016-Nov-26 06:33N 40°46' W 073°60'0 0.0
2016-Nov-26 05:33N 40°46' W 073°60'0 0.0
2016-Nov-26 04:33N 40°46' W 073°60'0 0.0
2016-Nov-26 03:33N 40°46' W 073°60'0 0.0
2016-Nov-26 02:33N 40°46' W 073°60'0 0.0
2016-Nov-26 01:33N 40°46' W 073°60'0 0.0
2016-Nov-26 00:33N 40°46' W 073°60'0 0.0
2016-Nov-25 23:33N 40°46' W 073°60'0 0.0
2016-Nov-25 22:33N 40°46' W 073°60'0 0.0
2016-Nov-25 21:33N 40°46' W 073°60'0 0.0
2016-Nov-25 20:33N 40°46' W 073°60'0 0.0
2016-Nov-25 19:33N 40°46' W 073°60'0 0.0
2016-Nov-25 18:33N 40°46' W 073°60'0 0.0
2016-Nov-25 17:33N 40°46' W 073°60'0 0.0
2016-Nov-25 16:33N 40°46' W 073°60'0 0.0
2016-Nov-25 15:33N 40°46' W 073°60'0 0.0
2016-Nov-25 14:33N 40°46' W 073°60'5 5.2
2016-Nov-25 13:33N 40°41' W 074°02'4 4.5
2016-Nov-25 12:33N 40°39' W 074°07'0 0.0
2016-Nov-25 11:32N 40°39' W 074°07'  

Dump ship's entire track history